Terminal Aerodrome Forecast
Issued by NWS

Home | Current Version | Previous Version | Text Only | Print | Product List | Glossary On
Versions: 1 2 3 4 5 6 7 8 9 10 11 12 13
000
FTPA31 PHFO 281737
TAFHOG
TAF
PHOG 281737Z 2818/2918 05015G24KT P6SM FEW035 SCT050
     FM282200 05022G30KT P6SM FEW030 SCT050
     FM290500 05013G22KT P6SM FEW030 SCT050
     FM291000 05011KT P6SM FEW030 SCT050=

USA.gov is the U.S. government's official web portal to all federal, state and local government web resources and services.